sensor_id;sensor_type;location;lat;lon;timestamp;P1;durP1;ratioP1;P2;durP2;ratioP2
59147;SDS011;44930;52.878;6.168;2023-03-14T00:01:50;22.27;;;4.95;;
59147;SDS011;44930;52.878;6.168;2023-03-14T00:04:16;26.80;;;4.80;;
59147;SDS011;44930;52.878;6.168;2023-03-14T00:06:41;28.45;;;6.15;;
59147;SDS011;44930;52.878;6.168;2023-03-14T00:09:07;27.55;;;4.82;;
59147;SDS011;44930;52.878;6.168;2023-03-14T00:11:33;24.25;;;4.97;;
59147;SDS011;44930;52.878;6.168;2023-03-14T00:13:58;24.23;;;5.00;;
59147;SDS011;44930;52.878;6.168;2023-03-14T00:16:25;22.45;;;3.78;;
59147;SDS011;44930;52.878;6.168;2023-03-14T00:18:50;24.70;;;5.78;;
59147;SDS011;44930;52.878;6.168;2023-03-14T00:21:16;16.63;;;3.28;;
59147;SDS011;44930;52.878;6.168;2023-03-14T00:23:42;23.77;;;4.93;;
59147;SDS011;44930;52.878;6.168;2023-03-14T00:26:09;22.42;;;5.35;;
59147;SDS011;44930;52.878;6.168;2023-03-14T00:28:39;20.50;;;3.83;;
59147;SDS011;44930;52.878;6.168;2023-03-14T00:31:06;22.77;;;4.05;;
59147;SDS011;44930;52.878;6.168;2023-03-14T00:33:32;26.60;;;4.57;;
59147;SDS011;44930;52.878;6.168;2023-03-14T00:35:59;20.05;;;3.92;;
59147;SDS011;44930;52.878;6.168;2023-03-14T00:38:28;23.90;;;4.22;;
59147;SDS011;44930;52.878;6.168;2023-03-14T00:40:55;23.40;;;4.95;;
59147;SDS011;44930;52.878;6.168;2023-03-14T00:43:21;21.80;;;4.75;;
59147;SDS011;44930;52.878;6.168;2023-03-14T00:45:47;20.77;;;4.25;;
59147;SDS011;44930;52.878;6.168;2023-03-14T00:48:13;19.75;;;4.00;;
59147;SDS011;44930;52.878;6.168;2023-03-14T00:50:39;20.55;;;4.43;;
59147;SDS011;44930;52.878;6.168;2023-03-14T00:53:05;24.13;;;4.13;;
59147;SDS011;44930;52.878;6.168;2023-03-14T00:55:30;20.60;;;5.30;;
59147;SDS011;44930;52.878;6.168;2023-03-14T00:57:56;14.90;;;3.92;;
59147;SDS011;44930;52.878;6.168;2023-03-14T01:00:22;19.85;;;4.40;;
59147;SDS011;44930;52.878;6.168;2023-03-14T01:02:48;18.45;;;4.45;;
59147;SDS011;44930;52.878;6.168;2023-03-14T01:05:14;25.13;;;4.47;;
59147;SDS011;44930;52.878;6.168;2023-03-14T01:07:39;16.85;;;3.58;;
59147;SDS011;44930;52.878;6.168;2023-03-14T01:10:05;16.42;;;3.13;;
59147;SDS011;44930;52.878;6.168;2023-03-14T01:12:31;24.52;;;4.00;;
59147;SDS011;44930;52.878;6.168;2023-03-14T01:14:57;23.42;;;3.72;;
59147;SDS011;44930;52.878;6.168;2023-03-14T01:17:22;19.45;;;3.80;;
59147;SDS011;44930;52.878;6.168;2023-03-14T01:19:48;23.75;;;3.70;;
59147;SDS011;44930;52.878;6.168;2023-03-14T01:22:14;19.98;;;3.05;;
59147;SDS011;44930;52.878;6.168;2023-03-14T01:24:39;15.02;;;3.25;;
59147;SDS011;44930;52.878;6.168;2023-03-14T01:27:05;15.90;;;3.85;;
59147;SDS011;44930;52.878;6.168;2023-03-14T01:29:30;15.90;;;2.97;;
59147;SDS011;44930;52.878;6.168;2023-03-14T01:31:56;14.25;;;2.38;;
59147;SDS011;44930;52.878;6.168;2023-03-14T01:34:22;15.85;;;3.40;;
59147;SDS011;44930;52.878;6.168;2023-03-14T01:36:48;14.27;;;3.40;;
59147;SDS011;44930;52.878;6.168;2023-03-14T01:39:13;23.48;;;3.72;;
59147;SDS011;44930;52.878;6.168;2023-03-14T01:41:40;15.27;;;2.97;;
59147;SDS011;44930;52.878;6.168;2023-03-14T01:44:08;13.68;;;3.10;;
59147;SDS011;44930;52.878;6.168;2023-03-14T01:46:37;12.30;;;2.33;;
59147;SDS011;44930;52.878;6.168;2023-03-14T01:51:55;14.82;;;2.83;;
59147;SDS011;44930;52.878;6.168;2023-03-14T01:54:36;12.93;;;2.90;;
59147;SDS011;44930;52.878;6.168;2023-03-14T01:57:11;11.52;;;3.05;;
59147;SDS011;44930;52.878;6.168;2023-03-14T01:59:46;13.93;;;2.28;;
59147;SDS011;44930;52.878;6.168;2023-03-14T02:02:19;11.98;;;2.90;;
59147;SDS011;44930;52.878;6.168;2023-03-14T02:04:45;11.85;;;2.90;;
59147;SDS011;44930;52.878;6.168;2023-03-14T02:07:25;13.80;;;3.10;;
59147;SDS011;44930;52.878;6.168;2023-03-14T02:09:53;17.13;;;2.83;;
59147;SDS011;44930;52.878;6.168;2023-03-14T02:12:20;9.90;;;2.35;;
59147;SDS011;44930;52.878;6.168;2023-03-14T02:14:47;9.82;;;2.80;;
59147;SDS011;44930;52.878;6.168;2023-03-14T02:17:13;6.80;;;2.10;;
59147;SDS011;44930;52.878;6.168;2023-03-14T02:19:48;13.05;;;2.53;;
59147;SDS011;44930;52.878;6.168;2023-03-14T02:22:19;13.05;;;2.25;;
59147;SDS011;44930;52.878;6.168;2023-03-14T02:27:17;12.10;;;2.05;;
59147;SDS011;44930;52.878;6.168;2023-03-14T02:32:22;8.65;;;1.52;;
59147;SDS011;44930;52.878;6.168;2023-03-14T02:34:51;11.48;;;2.45;;
59147;SDS011;44930;52.878;6.168;2023-03-14T02:37:21;13.23;;;2.15;;
59147;SDS011;44930;52.878;6.168;2023-03-14T02:39:50;9.80;;;2.33;;
59147;SDS011;44930;52.878;6.168;2023-03-14T02:42:15;9.57;;;2.20;;
59147;SDS011;44930;52.878;6.168;2023-03-14T02:44:52;10.32;;;2.55;;
59147;SDS011;44930;52.878;6.168;2023-03-14T02:47:21;7.82;;;3.03;;
59147;SDS011;44930;52.878;6.168;2023-03-14T02:49:52;6.35;;;1.92;;
59147;SDS011;44930;52.878;6.168;2023-03-14T02:52:22;10.55;;;2.53;;
59147;SDS011;44930;52.878;6.168;2023-03-14T02:54:47;16.38;;;2.92;;
59147;SDS011;44930;52.878;6.168;2023-03-14T02:57:13;11.27;;;2.60;;
59147;SDS011;44930;52.878;6.168;2023-03-14T02:59:38;15.88;;;2.72;;
59147;SDS011;44930;52.878;6.168;2023-03-14T03:02:04;12.25;;;3.30;;
59147;SDS011;44930;52.878;6.168;2023-03-14T03:04:29;13.55;;;4.20;;
59147;SDS011;44930;52.878;6.168;2023-03-14T03:06:55;17.98;;;4.03;;
59147;SDS011;44930;52.878;6.168;2023-03-14T03:09:20;10.60;;;3.58;;
59147;SDS011;44930;52.878;6.168;2023-03-14T03:11:46;14.45;;;3.38;;
59147;SDS011;44930;52.878;6.168;2023-03-14T03:14:12;14.63;;;3.88;;
59147;SDS011;44930;52.878;6.168;2023-03-14T03:16:38;16.15;;;4.95;;
59147;SDS011;44930;52.878;6.168;2023-03-14T03:19:03;18.88;;;4.43;;
59147;SDS011;44930;52.878;6.168;2023-03-14T03:21:29;11.02;;;3.63;;
59147;SDS011;44930;52.878;6.168;2023-03-14T03:23:54;13.82;;;3.95;;
59147;SDS011;44930;52.878;6.168;2023-03-14T03:26:20;15.57;;;3.92;;
59147;SDS011;44930;52.878;6.168;2023-03-14T03:28:45;18.00;;;4.30;;
59147;SDS011;44930;52.878;6.168;2023-03-14T03:31:11;20.30;;;5.32;;
59147;SDS011;44930;52.878;6.168;2023-03-14T03:33:37;15.68;;;4.85;;
59147;SDS011;44930;52.878;6.168;2023-03-14T03:36:03;14.55;;;4.47;;
59147;SDS011;44930;52.878;6.168;2023-03-14T03:38:29;13.27;;;4.32;;
59147;SDS011;44930;52.878;6.168;2023-03-14T03:40:54;17.40;;;4.90;;
59147;SDS011;44930;52.878;6.168;2023-03-14T03:43:20;12.50;;;5.13;;
59147;SDS011;44930;52.878;6.168;2023-03-14T03:45:46;16.23;;;5.93;;
59147;SDS011;44930;52.878;6.168;2023-03-14T03:48:11;17.10;;;4.78;;
59147;SDS011;44930;52.878;6.168;2023-03-14T03:50:37;14.60;;;4.93;;
59147;SDS011;44930;52.878;6.168;2023-03-14T03:53:08;22.90;;;6.03;;
59147;SDS011;44930;52.878;6.168;2023-03-14T03:55:33;18.70;;;5.45;;
59147;SDS011;44930;52.878;6.168;2023-03-14T03:57:59;16.67;;;5.55;;
59147;SDS011;44930;52.878;6.168;2023-03-14T04:00:25;16.58;;;6.18;;
59147;SDS011;44930;52.878;6.168;2023-03-14T04:02:50;14.98;;;5.50;;
59147;SDS011;44930;52.878;6.168;2023-03-14T04:05:16;15.70;;;5.95;;
59147;SDS011;44930;52.878;6.168;2023-03-14T04:07:41;13.68;;;5.28;;
59147;SDS011;44930;52.878;6.168;2023-03-14T04:10:07;20.85;;;6.60;;
59147;SDS011;44930;52.878;6.168;2023-03-14T04:12:33;17.38;;;5.80;;
59147;SDS011;44930;52.878;6.168;2023-03-14T04:14:58;20.83;;;5.80;;
59147;SDS011;44930;52.878;6.168;2023-03-14T04:17:24;17.33;;;5.68;;
59147;SDS011;44930;52.878;6.168;2023-03-14T04:19:49;15.18;;;5.22;;
59147;SDS011;44930;52.878;6.168;2023-03-14T04:22:18;17.65;;;5.95;;
59147;SDS011;44930;52.878;6.168;2023-03-14T04:24:43;17.50;;;5.10;;
59147;SDS011;44930;52.878;6.168;2023-03-14T04:27:09;14.45;;;5.38;;
59147;SDS011;44930;52.878;6.168;2023-03-14T04:29:34;17.90;;;4.32;;
59147;SDS011;44930;52.878;6.168;2023-03-14T04:32:00;15.50;;;4.50;;
59147;SDS011;44930;52.878;6.168;2023-03-14T04:34:25;17.48;;;4.25;;
59147;SDS011;44930;52.878;6.168;2023-03-14T04:36:51;21.15;;;4.00;;
59147;SDS011;44930;52.878;6.168;2023-03-14T04:39:16;14.30;;;4.82;;
59147;SDS011;44930;52.878;6.168;2023-03-14T04:41:43;17.90;;;5.18;;
59147;SDS011;44930;52.878;6.168;2023-03-14T04:44:09;15.90;;;4.53;;
59147;SDS011;44930;52.878;6.168;2023-03-14T04:46:35;16.33;;;4.68;;
59147;SDS011;44930;52.878;6.168;2023-03-14T04:49:00;12.93;;;4.22;;
59147;SDS011;44930;52.878;6.168;2023-03-14T04:51:26;15.60;;;4.78;;
59147;SDS011;44930;52.878;6.168;2023-03-14T04:53:52;13.68;;;4.50;;
59147;SDS011;44930;52.878;6.168;2023-03-14T04:56:18;18.35;;;4.28;;
59147;SDS011;44930;52.878;6.168;2023-03-14T04:58:43;14.38;;;3.95;;
59147;SDS011;44930;52.878;6.168;2023-03-14T05:01:09;13.13;;;3.83;;
59147;SDS011;44930;52.878;6.168;2023-03-14T05:03:35;16.98;;;4.78;;
59147;SDS011;44930;52.878;6.168;2023-03-14T05:06:02;13.27;;;4.53;;
59147;SDS011;44930;52.878;6.168;2023-03-14T05:08:28;14.77;;;3.92;;
59147;SDS011;44930;52.878;6.168;2023-03-14T05:10:57;15.02;;;4.63;;
59147;SDS011;44930;52.878;6.168;2023-03-14T05:13:23;18.92;;;5.63;;
59147;SDS011;44930;52.878;6.168;2023-03-14T05:15:48;12.75;;;4.60;;
59147;SDS011;44930;52.878;6.168;2023-03-14T05:18:15;14.65;;;4.45;;
59147;SDS011;44930;52.878;6.168;2023-03-14T05:20:41;11.38;;;4.05;;
59147;SDS011;44930;52.878;6.168;2023-03-14T05:23:08;13.48;;;4.72;;
59147;SDS011;44930;52.878;6.168;2023-03-14T05:25:34;14.57;;;5.68;;
59147;SDS011;44930;52.878;6.168;2023-03-14T05:28:00;15.45;;;5.30;;
59147;SDS011;44930;52.878;6.168;2023-03-14T05:30:25;14.38;;;4.50;;
59147;SDS011;44930;52.878;6.168;2023-03-14T05:32:53;13.93;;;4.90;;
59147;SDS011;44930;52.878;6.168;2023-03-14T05:35:19;21.90;;;5.20;;
59147;SDS011;44930;52.878;6.168;2023-03-14T05:37:44;22.45;;;5.70;;
59147;SDS011;44930;52.878;6.168;2023-03-14T05:40:10;15.75;;;4.30;;
59147;SDS011;44930;52.878;6.168;2023-03-14T05:42:36;13.23;;;4.80;;
59147;SDS011;44930;52.878;6.168;2023-03-14T05:45:01;17.98;;;5.28;;
59147;SDS011;44930;52.878;6.168;2023-03-14T05:47:27;21.88;;;4.85;;
59147;SDS011;44930;52.878;6.168;2023-03-14T05:49:53;13.05;;;5.25;;
59147;SDS011;44930;52.878;6.168;2023-03-14T05:52:18;10.15;;;5.13;;
59147;SDS011;44930;52.878;6.168;2023-03-14T05:54:44;15.07;;;5.65;;
59147;SDS011;44930;52.878;6.168;2023-03-14T05:57:10;12.30;;;5.32;;
59147;SDS011;44930;52.878;6.168;2023-03-14T05:59:36;14.63;;;4.95;;
59147;SDS011;44930;52.878;6.168;2023-03-14T06:02:01;15.73;;;5.10;;
59147;SDS011;44930;52.878;6.168;2023-03-14T06:04:27;11.73;;;5.40;;
59147;SDS011;44930;52.878;6.168;2023-03-14T06:06:52;13.30;;;4.68;;
59147;SDS011;44930;52.878;6.168;2023-03-14T06:09:18;13.35;;;6.30;;
59147;SDS011;44930;52.878;6.168;2023-03-14T06:11:45;15.25;;;6.28;;
59147;SDS011;44930;52.878;6.168;2023-03-14T06:14:11;16.42;;;4.82;;
59147;SDS011;44930;52.878;6.168;2023-03-14T06:16:37;14.90;;;5.70;;
59147;SDS011;44930;52.878;6.168;2023-03-14T06:19:02;17.88;;;5.72;;
59147;SDS011;44930;52.878;6.168;2023-03-14T06:21:28;12.68;;;5.45;;
59147;SDS011;44930;52.878;6.168;2023-03-14T06:23:54;12.52;;;4.97;;
59147;SDS011;44930;52.878;6.168;2023-03-14T06:26:19;13.35;;;4.93;;
59147;SDS011;44930;52.878;6.168;2023-03-14T06:28:45;9.35;;;4.13;;
59147;SDS011;44930;52.878;6.168;2023-03-14T06:31:11;11.35;;;4.07;;
59147;SDS011;44930;52.878;6.168;2023-03-14T06:33:36;9.32;;;4.15;;
59147;SDS011;44930;52.878;6.168;2023-03-14T06:36:02;7.72;;;3.63;;
59147;SDS011;44930;52.878;6.168;2023-03-14T06:38:28;10.35;;;3.33;;
59147;SDS011;44930;52.878;6.168;2023-03-14T06:40:53;5.80;;;2.97;;
59147;SDS011;44930;52.878;6.168;2023-03-14T06:43:19;5.43;;;1.92;;
59147;SDS011;44930;52.878;6.168;2023-03-14T06:45:45;4.13;;;1.77;;
59147;SDS011;44930;52.878;6.168;2023-03-14T06:48:11;3.92;;;1.52;;
59147;SDS011;44930;52.878;6.168;2023-03-14T06:50:37;9.40;;;2.20;;
59147;SDS011;44930;52.878;6.168;2023-03-14T06:53:02;1.17;;;0.77;;
59147;SDS011;44930;52.878;6.168;2023-03-14T06:55:28;3.72;;;1.77;;
59147;SDS011;44930;52.878;6.168;2023-03-14T06:57:53;5.05;;;2.03;;
59147;SDS011;44930;52.878;6.168;2023-03-14T07:00:19;7.78;;;1.08;;
59147;SDS011;44930;52.878;6.168;2023-03-14T07:02:45;5.07;;;0.80;;
59147;SDS011;44930;52.878;6.168;2023-03-14T07:05:10;5.53;;;0.98;;
59147;SDS011;44930;52.878;6.168;2023-03-14T07:07:36;5.43;;;1.52;;
59147;SDS011;44930;52.878;6.168;2023-03-14T07:10:01;9.73;;;1.00;;
59147;SDS011;44930;52.878;6.168;2023-03-14T07:12:27;12.38;;;1.30;;
59147;SDS011;44930;52.878;6.168;2023-03-14T07:14:53;13.55;;;1.95;;
59147;SDS011;44930;52.878;6.168;2023-03-14T07:17:18;9.05;;;1.15;;
59147;SDS011;44930;52.878;6.168;2023-03-14T07:19:44;6.20;;;1.50;;
59147;SDS011;44930;52.878;6.168;2023-03-14T07:22:09;10.50;;;1.35;;
59147;SDS011;44930;52.878;6.168;2023-03-14T07:24:35;13.40;;;1.20;;
59147;SDS011;44930;52.878;6.168;2023-03-14T07:27:00;9.02;;;1.60;;
59147;SDS011;44930;52.878;6.168;2023-03-14T07:29:26;5.18;;;1.58;;
59147;SDS011;44930;52.878;6.168;2023-03-14T07:31:51;7.95;;;1.33;;
59147;SDS011;44930;52.878;6.168;2023-03-14T07:34:17;2.97;;;1.02;;
59147;SDS011;44930;52.878;6.168;2023-03-14T07:36:44;2.75;;;0.65;;
59147;SDS011;44930;52.878;6.168;2023-03-14T07:39:09;4.95;;;0.90;;
59147;SDS011;44930;52.878;6.168;2023-03-14T07:41:35;3.80;;;0.65;;
59147;SDS011;44930;52.878;6.168;2023-03-14T07:44:01;4.82;;;0.50;;
59147;SDS011;44930;52.878;6.168;2023-03-14T07:46:26;1.25;;;0.30;;
59147;SDS011;44930;52.878;6.168;2023-03-14T07:48:52;4.43;;;0.70;;
59147;SDS011;44930;52.878;6.168;2023-03-14T07:51:18;2.28;;;0.77;;
59147;SDS011;44930;52.878;6.168;2023-03-14T07:53:44;1.92;;;0.55;;
59147;SDS011;44930;52.878;6.168;2023-03-14T07:56:10;5.13;;;0.70;;
59147;SDS011;44930;52.878;6.168;2023-03-14T07:58:36;6.65;;;1.33;;
59147;SDS011;44930;52.878;6.168;2023-03-14T08:01:01;1.15;;;0.50;;
59147;SDS011;44930;52.878;6.168;2023-03-14T08:03:27;3.22;;;0.65;;
59147;SDS011;44930;52.878;6.168;2023-03-14T08:05:53;3.40;;;0.65;;
59147;SDS011;44930;52.878;6.168;2023-03-14T08:08:19;2.63;;;0.30;;
59147;SDS011;44930;52.878;6.168;2023-03-14T08:10:44;3.45;;;0.63;;
59147;SDS011;44930;52.878;6.168;2023-03-14T08:13:11;3.13;;;0.85;;
59147;SDS011;44930;52.878;6.168;2023-03-14T08:15:37;3.97;;;1.15;;
59147;SDS011;44930;52.878;6.168;2023-03-14T08:18:04;5.20;;;1.77;;
59147;SDS011;44930;52.878;6.168;2023-03-14T08:20:30;6.55;;;0.73;;
59147;SDS011;44930;52.878;6.168;2023-03-14T08:22:56;5.43;;;0.90;;
59147;SDS011;44930;52.878;6.168;2023-03-14T08:25:23;6.82;;;0.80;;
59147;SDS011;44930;52.878;6.168;2023-03-14T08:27:48;3.50;;;0.70;;
59147;SDS011;44930;52.878;6.168;2023-03-14T08:30:15;4.70;;;1.25;;
59147;SDS011;44930;52.878;6.168;2023-03-14T08:32:42;4.35;;;1.02;;
59147;SDS011;44930;52.878;6.168;2023-03-14T08:35:08;9.77;;;0.90;;
59147;SDS011;44930;52.878;6.168;2023-03-14T08:37:35;5.63;;;0.90;;
59147;SDS011;44930;52.878;6.168;2023-03-14T08:40:01;2.78;;;0.70;;
59147;SDS011;44930;52.878;6.168;2023-03-14T08:42:32;4.75;;;0.68;;
59147;SDS011;44930;52.878;6.168;2023-03-14T08:44:58;6.30;;;1.25;;
59147;SDS011;44930;52.878;6.168;2023-03-14T08:47:23;8.65;;;1.40;;
59147;SDS011;44930;52.878;6.168;2023-03-14T08:49:49;6.70;;;1.02;;
59147;SDS011;44930;52.878;6.168;2023-03-14T08:52:15;6.72;;;1.10;;
59147;SDS011;44930;52.878;6.168;2023-03-14T08:54:41;7.80;;;1.20;;
59147;SDS011;44930;52.878;6.168;2023-03-14T08:57:10;8.38;;;1.40;;
59147;SDS011;44930;52.878;6.168;2023-03-14T08:59:36;6.95;;;2.10;;
59147;SDS011;44930;52.878;6.168;2023-03-14T09:02:01;11.27;;;1.75;;
59147;SDS011;44930;52.878;6.168;2023-03-14T09:04:28;14.52;;;2.47;;
59147;SDS011;44930;52.878;6.168;2023-03-14T09:06:55;14.05;;;1.95;;
59147;SDS011;44930;52.878;6.168;2023-03-14T09:09:22;15.50;;;2.35;;
59147;SDS011;44930;52.878;6.168;2023-03-14T09:11:48;7.72;;;1.63;;
59147;SDS011;44930;52.878;6.168;2023-03-14T09:14:14;12.15;;;2.53;;
59147;SDS011;44930;52.878;6.168;2023-03-14T09:16:40;9.70;;;1.92;;
59147;SDS011;44930;52.878;6.168;2023-03-14T09:19:05;18.27;;;2.00;;
59147;SDS011;44930;52.878;6.168;2023-03-14T09:21:31;16.40;;;2.22;;
59147;SDS011;44930;52.878;6.168;2023-03-14T09:23:56;10.05;;;2.25;;
59147;SDS011;44930;52.878;6.168;2023-03-14T09:26:22;15.05;;;2.78;;
59147;SDS011;44930;52.878;6.168;2023-03-14T09:28:47;23.83;;;3.30;;
59147;SDS011;44930;52.878;6.168;2023-03-14T09:31:13;16.17;;;2.88;;
59147;SDS011;44930;52.878;6.168;2023-03-14T09:33:39;24.95;;;3.53;;
59147;SDS011;44930;52.878;6.168;2023-03-14T09:36:05;16.48;;;2.75;;
59147;SDS011;44930;52.878;6.168;2023-03-14T09:38:32;15.57;;;2.47;;
59147;SDS011;44930;52.878;6.168;2023-03-14T09:40:59;11.30;;;2.63;;
59147;SDS011;44930;52.878;6.168;2023-03-14T09:43:27;12.57;;;2.67;;
59147;SDS011;44930;52.878;6.168;2023-03-14T09:45:55;15.20;;;3.75;;
59147;SDS011;44930;52.878;6.168;2023-03-14T09:48:24;18.58;;;2.53;;
59147;SDS011;44930;52.878;6.168;2023-03-14T09:50:56;18.95;;;3.85;;
59147;SDS011;44930;52.878;6.168;2023-03-14T09:53:24;24.17;;;3.22;;
59147;SDS011;44930;52.878;6.168;2023-03-14T09:55:52;14.38;;;2.88;;
59147;SDS011;44930;52.878;6.168;2023-03-14T09:58:20;18.42;;;2.80;;
59147;SDS011;44930;52.878;6.168;2023-03-14T10:00:48;30.75;;;4.47;;
59147;SDS011;44930;52.878;6.168;2023-03-14T10:03:22;18.90;;;2.85;;
59147;SDS011;44930;52.878;6.168;2023-03-14T10:05:53;23.00;;;3.38;;
59147;SDS011;44930;52.878;6.168;2023-03-14T10:08:20;12.05;;;2.50;;
59147;SDS011;44930;52.878;6.168;2023-03-14T10:10:46;16.50;;;2.70;;
59147;SDS011;44930;52.878;6.168;2023-03-14T10:15:54;15.98;;;2.85;;
59147;SDS011;44930;52.878;6.168;2023-03-14T10:18:25;10.05;;;2.92;;
59147;SDS011;44930;52.878;6.168;2023-03-14T10:21:01;15.88;;;3.50;;
59147;SDS011;44930;52.878;6.168;2023-03-14T10:23:32;13.75;;;2.58;;
59147;SDS011;44930;52.878;6.168;2023-03-14T10:26:02;13.55;;;3.05;;
59147;SDS011;44930;52.878;6.168;2023-03-14T10:31:16;17.77;;;2.65;;
59147;SDS011;44930;52.878;6.168;2023-03-14T10:33:42;12.85;;;2.17;;
59147;SDS011;44930;52.878;6.168;2023-03-14T10:36:24;12.43;;;2.17;;
59147;SDS011;44930;52.878;6.168;2023-03-14T10:38:57;14.75;;;3.25;;
59147;SDS011;44930;52.878;6.168;2023-03-14T10:41:50;11.77;;;2.53;;
59147;SDS011;44930;52.878;6.168;2023-03-14T10:44:17;8.25;;;1.88;;
59147;SDS011;44930;52.878;6.168;2023-03-14T10:46:55;15.40;;;3.13;;
59147;SDS011;44930;52.878;6.168;2023-03-14T10:49:34;14.82;;;2.20;;
59147;SDS011;44930;52.878;6.168;2023-03-14T10:54:46;12.07;;;2.33;;
59147;SDS011;44930;52.878;6.168;2023-03-14T10:57:13;15.13;;;2.17;;
59147;SDS011;44930;52.878;6.168;2023-03-14T10:59:39;15.25;;;1.88;;
59147;SDS011;44930;52.878;6.168;2023-03-14T11:07:41;6.70;;;1.60;;
59147;SDS011;44930;52.878;6.168;2023-03-14T11:10:14;10.60;;;1.65;;
59147;SDS011;44930;52.878;6.168;2023-03-14T11:13:00;13.05;;;1.55;;
59147;SDS011;44930;52.878;6.168;2023-03-14T11:15:33;8.38;;;2.33;;
59147;SDS011;44930;52.878;6.168;2023-03-14T11:21:16;5.88;;;2.33;;
59147;SDS011;44930;52.878;6.168;2023-03-14T11:23:50;7.63;;;2.55;;
59147;SDS011;44930;52.878;6.168;2023-03-14T11:26:33;7.28;;;1.33;;
59147;SDS011;44930;52.878;6.168;2023-03-14T11:29:20;9.70;;;1.85;;
59147;SDS011;44930;52.878;6.168;2023-03-14T11:31:51;10.25;;;2.05;;
59147;SDS011;44930;52.878;6.168;2023-03-14T11:34:27;7.10;;;1.48;;
59147;SDS011;44930;52.878;6.168;2023-03-14T11:39:34;9.73;;;2.08;;
59147;SDS011;44930;52.878;6.168;2023-03-14T11:42:11;3.85;;;1.10;;
59147;SDS011;44930;52.878;6.168;2023-03-14T11:44:40;7.35;;;0.90;;
59147;SDS011;44930;52.878;6.168;2023-03-14T11:57:56;6.18;;;1.45;;
59147;SDS011;44930;52.878;6.168;2023-03-14T12:00:24;3.95;;;1.90;;
59147;SDS011;44930;52.878;6.168;2023-03-14T12:08:29;5.13;;;0.90;;
59147;SDS011;44930;52.878;6.168;2023-03-14T12:13:53;5.78;;;1.95;;
59147;SDS011;44930;52.878;6.168;2023-03-14T12:16:37;4.75;;;0.80;;
59147;SDS011;44930;52.878;6.168;2023-03-14T12:21:49;6.47;;;1.40;;
59147;SDS011;44930;52.878;6.168;2023-03-14T12:24:19;4.00;;;1.00;;
59147;SDS011;44930;52.878;6.168;2023-03-14T12:26:52;8.07;;;1.20;;
59147;SDS011;44930;52.878;6.168;2023-03-14T12:29:20;11.60;;;1.40;;
59147;SDS011;44930;52.878;6.168;2023-03-14T12:31:47;3.88;;;1.02;;
59147;SDS011;44930;52.878;6.168;2023-03-14T12:47:31;6.90;;;1.83;;
59147;SDS011;44930;52.878;6.168;2023-03-14T12:49:57;6.13;;;1.40;;
59147;SDS011;44930;52.878;6.168;2023-03-14T12:52:49;12.18;;;1.70;;
59147;SDS011;44930;52.878;6.168;2023-03-14T13:01:18;6.78;;;1.48;;
59147;SDS011;44930;52.878;6.168;2023-03-14T13:03:45;8.02;;;1.60;;
59147;SDS011;44930;52.878;6.168;2023-03-14T13:06:12;13.60;;;2.08;;
59147;SDS011;44930;52.878;6.168;2023-03-14T13:08:39;6.03;;;1.10;;
59147;SDS011;44930;52.878;6.168;2023-03-14T13:11:14;8.02;;;1.77;;
59147;SDS011;44930;52.878;6.168;2023-03-14T13:13:47;5.63;;;1.13;;
59147;SDS011;44930;52.878;6.168;2023-03-14T13:16:23;6.45;;;1.38;;
59147;SDS011;44930;52.878;6.168;2023-03-14T13:19:31;6.07;;;1.00;;
59147;SDS011;44930;52.878;6.168;2023-03-14T13:21:43;6.88;;;1.05;;
59147;SDS011;44930;52.878;6.168;2023-03-14T13:24:20;3.25;;;0.80;;
59147;SDS011;44930;52.878;6.168;2023-03-14T13:26:52;6.35;;;1.25;;
59147;SDS011;44930;52.878;6.168;2023-03-14T13:29:20;7.30;;;0.80;;
59147;SDS011;44930;52.878;6.168;2023-03-14T13:31:49;6.57;;;1.08;;
59147;SDS011;44930;52.878;6.168;2023-03-14T13:34:16;8.50;;;1.92;;
59147;SDS011;44930;52.878;6.168;2023-03-14T13:36:43;6.68;;;0.85;;
59147;SDS011;44930;52.878;6.168;2023-03-14T13:39:19;10.82;;;1.77;;
59147;SDS011;44930;52.878;6.168;2023-03-14T13:41:47;6.10;;;0.98;;
59147;SDS011;44930;52.878;6.168;2023-03-14T13:44:15;2.28;;;0.75;;
59147;SDS011;44930;52.878;6.168;2023-03-14T13:46:44;5.57;;;1.50;;
59147;SDS011;44930;52.878;6.168;2023-03-14T13:49:11;4.60;;;1.42;;
59147;SDS011;44930;52.878;6.168;2023-03-14T13:51:44;8.55;;;1.65;;
59147;SDS011;44930;52.878;6.168;2023-03-14T13:54:17;7.07;;;1.98;;
59147;SDS011;44930;52.878;6.168;2023-03-14T13:56:44;11.18;;;1.80;;
59147;SDS011;44930;52.878;6.168;2023-03-14T13:59:23;6.82;;;1.35;;
59147;SDS011;44930;52.878;6.168;2023-03-14T14:01:51;4.35;;;1.40;;
59147;SDS011;44930;52.878;6.168;2023-03-14T14:04:19;4.68;;;1.13;;
59147;SDS011;44930;52.878;6.168;2023-03-14T14:06:52;5.47;;;1.10;;
59147;SDS011;44930;52.878;6.168;2023-03-14T14:09:20;8.35;;;1.02;;
59147;SDS011;44930;52.878;6.168;2023-03-14T14:11:56;13.10;;;2.88;;
59147;SDS011;44930;52.878;6.168;2023-03-14T14:14:34;11.00;;;2.50;;
59147;SDS011;44930;52.878;6.168;2023-03-14T14:17:06;8.65;;;1.50;;
59147;SDS011;44930;52.878;6.168;2023-03-14T14:19:35;4.85;;;1.00;;
59147;SDS011;44930;52.878;6.168;2023-03-14T14:22:02;3.03;;;0.70;;
59147;SDS011;44930;52.878;6.168;2023-03-14T14:24:29;7.55;;;1.15;;
59147;SDS011;44930;52.878;6.168;2023-03-14T14:27:01;7.78;;;1.40;;
59147;SDS011;44930;52.878;6.168;2023-03-14T14:29:34;5.05;;;1.15;;
59147;SDS011;44930;52.878;6.168;2023-03-14T14:35:06;6.28;;;0.88;;
59147;SDS011;44930;52.878;6.168;2023-03-14T14:37:33;4.82;;;1.20;;
59147;SDS011;44930;52.878;6.168;2023-03-14T14:40:09;9.77;;;1.17;;
59147;SDS011;44930;52.878;6.168;2023-03-14T14:42:42;5.10;;;1.60;;
59147;SDS011;44930;52.878;6.168;2023-03-14T14:45:13;4.35;;;0.85;;
59147;SDS011;44930;52.878;6.168;2023-03-14T14:48:15;8.43;;;1.23;;
59147;SDS011;44930;52.878;6.168;2023-03-14T14:50:39;3.88;;;1.05;;
59147;SDS011;44930;52.878;6.168;2023-03-14T14:53:36;9.50;;;0.95;;
59147;SDS011;44930;52.878;6.168;2023-03-14T14:56:18;3.60;;;0.80;;
59147;SDS011;44930;52.878;6.168;2023-03-14T14:58:49;6.80;;;0.95;;
59147;SDS011;44930;52.878;6.168;2023-03-14T15:03:47;3.72;;;0.85;;
59147;SDS011;44930;52.878;6.168;2023-03-14T15:06:16;8.13;;;1.42;;
59147;SDS011;44930;52.878;6.168;2023-03-14T15:08:42;5.78;;;1.30;;
59147;SDS011;44930;52.878;6.168;2023-03-14T15:11:12;15.63;;;2.17;;
59147;SDS011;44930;52.878;6.168;2023-03-14T15:13:47;8.52;;;1.08;;
59147;SDS011;44930;52.878;6.168;2023-03-14T15:16:13;10.63;;;1.35;;
59147;SDS011;44930;52.878;6.168;2023-03-14T15:18:41;12.10;;;1.90;;
59147;SDS011;44930;52.878;6.168;2023-03-14T15:21:10;10.32;;;1.50;;
59147;SDS011;44930;52.878;6.168;2023-03-14T15:23:36;7.63;;;1.50;;
59147;SDS011;44930;52.878;6.168;2023-03-14T15:26:02;7.20;;;1.23;;
59147;SDS011;44930;52.878;6.168;2023-03-14T15:28:30;6.32;;;1.58;;
59147;SDS011;44930;52.878;6.168;2023-03-14T15:30:56;14.43;;;1.50;;
59147;SDS011;44930;52.878;6.168;2023-03-14T15:33:24;15.25;;;2.10;;
59147;SDS011;44930;52.878;6.168;2023-03-14T15:35:51;13.70;;;1.80;;
59147;SDS011;44930;52.878;6.168;2023-03-14T15:38:18;10.93;;;1.85;;
59147;SDS011;44930;52.878;6.168;2023-03-14T15:40:47;6.65;;;1.80;;
59147;SDS011;44930;52.878;6.168;2023-03-14T15:43:17;3.85;;;1.15;;
59147;SDS011;44930;52.878;6.168;2023-03-14T15:45:43;7.18;;;2.28;;
59147;SDS011;44930;52.878;6.168;2023-03-14T15:48:14;5.60;;;1.45;;
59147;SDS011;44930;52.878;6.168;2023-03-14T15:50:41;12.27;;;0.98;;
59147;SDS011;44930;52.878;6.168;2023-03-14T15:53:07;6.65;;;1.33;;
59147;SDS011;44930;52.878;6.168;2023-03-14T15:55:33;1.60;;;0.65;;
59147;SDS011;44930;52.878;6.168;2023-03-14T15:57:59;7.18;;;0.93;;
59147;SDS011;44930;52.878;6.168;2023-03-14T16:00:25;4.57;;;0.77;;